Time;durP1;ratioP1;P1;durP2;ratioP2;P2;SDS_P1;SDS_P2;PMS_P1;PMS_P2;Temp;Humidity;BMP_temperature;BMP_pressure;BME280_temperature;BME280_humidity;BME280_pressure;Samples;Min_cycle;Max_cycle;Signal;HPM_P1;HPM_P2
2022/11/15 00:02:46;;;;;;;31.20;17.63;;;6.80;99.90;;;;;;4935392;29;20126;-64
2022/11/15 00:05:40;;;;;;;29.33;17.42;;;6.90;99.90;;;;;;4951761;28;20062;-65
2022/11/15 00:08:46;;;;;;;;;;;;;;;;;;;;;
2022/11/15 00:11:50;;;;;;;29.20;17.27;;;7.00;99.90;;;;;;4970514;28;20058;-65
2022/11/15 00:14:48;;;;;;;25.27;17.10;;;7.10;99.90;;;;;;4971883;28;20058;-65
2022/11/15 00:17:57;;;;;;;27.13;18.00;;;7.20;99.90;;;;;;4952881;29;20055;-65
2022/11/15 00:20:40;;;;;;;27.90;17.45;;;7.20;99.90;;;;;;4936031;29;20478;-65
2022/11/15 00:23:33;;;;;;;26.02;17.67;;;7.30;99.90;;;;;;4935401;29;20591;-65
2022/11/15 00:26:31;;;;;;;28.02;17.20;;;7.30;99.90;;;;;;4952989;29;20050;-65
2022/11/15 00:29:46;;;;;;;28.45;18.52;;;7.30;99.90;;;;;;4951925;28;20110;-66
2022/11/15 00:32:55;;;;;;;23.50;15.23;;;7.30;99.90;;;;;;4936145;29;20110;-66
2022/11/15 00:36:10;;;;;;;28.85;17.40;;;7.30;99.90;;;;;;4949182;28;20059;-65
2022/11/15 00:39:25;;;;;;;30.15;18.60;;;7.20;99.90;;;;;;4936161;29;20086;-66
2022/11/15 00:42:20;;;;;;;29.23;17.55;;;7.20;99.90;;;;;;4952854;29;20046;-66
2022/11/15 00:45:30;;;;;;;29.13;20.58;;;7.10;99.90;;;;;;4945845;29;20090;-65
2022/11/15 00:48:25;;;;;;;32.28;19.00;;;7.10;99.90;;;;;;4952336;29;20058;-65
2022/11/15 00:51:41;;;;;;;37.30;21.42;;;7.10;99.90;;;;;;4951458;28;20051;-65
2022/11/15 00:54:45;;;;;;;37.53;22.45;;;7.10;99.90;;;;;;4951342;28;20066;-65
2022/11/15 00:57:48;;;;;;;;;;;;;;;;;;;;;
2022/11/15 01:00:50;;;;;;;37.15;21.80;;;7.00;99.90;;;;;;4957155;28;20053;-65
2022/11/15 01:04:00;;;;;;;34.80;21.17;;;7.00;99.90;;;;;;4982308;28;20058;-65
2022/11/15 01:06:44;;;;;;;29.70;16.77;;;6.90;99.90;;;;;;4966710;28;20051;-65
2022/11/15 01:09:21;;;;;;;32.58;21.25;;;6.90;99.90;;;;;;4971623;28;20517;-65
2022/11/15 01:11:59;;;;;;;35.13;19.55;;;6.90;99.90;;;;;;4971733;28;20089;-65
2022/11/15 01:14:36;;;;;;;33.88;19.75;;;6.80;99.90;;;;;;4971612;28;20046;-65
2022/11/15 01:17:25;;;;;;;34.47;19.88;;;6.80;99.90;;;;;;4954956;28;20043;-65
2022/11/15 01:20:03;;;;;;;26.23;13.73;;;6.70;99.90;;;;;;4969490;28;20390;-66
2022/11/15 01:22:39;;;;;;;28.27;16.13;;;6.70;99.90;;;;;;4954672;28;20039;-65
2022/11/15 01:25:29;;;;;;;27.30;16.13;;;6.70;99.90;;;;;;4970375;28;20074;-65
2022/11/15 01:28:14;;;;;;;33.55;19.98;;;6.70;99.90;;;;;;4968817;28;20182;-65
2022/11/15 01:30:59;;;;;;;33.20;18.92;;;6.70;99.90;;;;;;4968970;28;20043;-64
2022/11/15 01:33:42;;;;;;;29.40;18.38;;;6.70;99.90;;;;;;4952768;28;20058;-65
2022/11/15 01:36:43;;;;;;;32.20;17.90;;;6.70;99.90;;;;;;4965960;28;20519;-65
2022/11/15 01:39:16;;;;;;;31.45;17.52;;;6.70;99.90;;;;;;4968828;28;20106;-65
2022/11/15 01:42:16;;;;;;;30.38;18.73;;;6.70;99.90;;;;;;4968425;28;20122;-65
2022/11/15 01:45:02;;;;;;;35.92;18.40;;;6.70;99.90;;;;;;4968803;28;20404;-65
2022/11/15 01:47:50;;;;;;;35.35;19.83;;;6.70;99.90;;;;;;4968584;28;20054;-65
2022/11/15 01:50:32;;;;;;;32.53;18.58;;;6.70;99.90;;;;;;4971417;28;20055;-65
2022/11/15 01:53:19;;;;;;;32.67;19.02;;;6.70;99.90;;;;;;4956191;28;20065;-65
2022/11/15 01:56:04;;;;;;;30.15;18.42;;;6.70;99.90;;;;;;4956467;28;20035;-65
2022/11/15 01:58:54;;;;;;;36.33;18.98;;;6.70;99.90;;;;;;4973028;28;20063;-65
2022/11/15 02:01:52;;;;;;;36.78;19.15;;;6.70;99.90;;;;;;4973674;28;20054;-64
2022/11/15 02:04:44;;;;;;;39.75;20.95;;;6.80;99.90;;;;;;4973838;28;20050;-65
2022/11/15 02:07:31;;;;;;;40.38;21.40;;;6.70;99.90;;;;;;4970690;28;20090;-64
2022/11/15 02:10:57;;;;;;;41.28;22.73;;;6.80;99.90;;;;;;4940360;28;20086;-65
2022/11/15 02:14:24;;;;;;;43.85;21.48;;;6.80;99.90;;;;;;4974227;28;20046;-65
2022/11/15 02:18:03;;;;;;;41.92;22.58;;;6.90;99.90;;;;;;4973082;28;20086;-65
2022/11/15 02:21:48;;;;;;;44.80;22.15;;;6.80;99.90;;;;;;4973951;28;20405;-65
2022/11/15 02:25:39;;;;;;;42.08;21.05;;;6.90;99.90;;;;;;4975104;28;20548;-65
2022/11/15 02:33:10;;;;;;;41.40;21.88;;;6.90;99.90;;;;;;4973559;28;20046;-65
2022/11/15 02:36:42;;;;;;;40.60;20.17;;;7.00;99.90;;;;;;4982449;28;20047;-65
2022/11/15 02:39:57;;;;;;;44.63;21.58;;;7.00;99.90;;;;;;4974714;28;20054;-65
2022/11/15 02:47:18;;;;;;;50.85;23.70;;;7.10;99.90;;;;;;4958886;28;20485;-65
2022/11/15 02:50:58;;;;;;;48.35;22.60;;;7.10;99.90;;;;;;4974405;28;20051;-65
2022/11/15 02:54:37;;;;;;;49.67;24.27;;;7.20;99.90;;;;;;4958531;28;20061;-65
2022/11/15 02:58:12;;;;;;;;;;;;;;;;;;;;;
2022/11/15 03:01:41;;;;;;;53.55;24.08;;;7.20;99.90;;;;;;4973269;28;20126;-65
2022/11/15 03:04:52;;;;;;;48.15;22.80;;;7.30;99.90;;;;;;4946203;28;20050;-65
2022/11/15 03:08:37;;;;;;;;;;;;;;;;;;;;;
2022/11/15 03:12:11;;;;;;;53.15;24.30;;;7.30;99.90;;;;;;4937477;28;20083;-65
2022/11/15 03:15:42;;;;;;;61.42;27.15;;;7.40;99.90;;;;;;4992287;28;20042;-65
2022/11/15 03:19:22;;;;;;;52.55;22.35;;;7.40;99.90;;;;;;4993281;28;20480;-65
2022/11/15 03:22:53;;;;;;;57.47;23.17;;;7.50;99.90;;;;;;4976321;28;20133;-66
2022/11/15 03:26:08;;;;;;;58.75;25.60;;;7.50;99.90;;;;;;4975702;28;20047;-65
2022/11/15 03:30:00;;;;;;;56.30;25.25;;;7.60;99.90;;;;;;4969179;28;20038;-65
2022/11/15 03:33:25;;;;;;;64.88;27.40;;;7.60;99.90;;;;;;4971767;28;20074;-65
2022/11/15 03:36:40;;;;;;;68.13;26.80;;;7.60;99.90;;;;;;4969098;28;20043;-65
2022/11/15 03:40:04;;;;;;;63.95;27.20;;;7.60;99.90;;;;;;4973377;28;20039;-65
2022/11/15 03:43:42;;;;;;;70.18;27.60;;;7.70;99.90;;;;;;4958419;28;20042;-65
2022/11/15 03:47:16;;;;;;;71.40;28.58;;;7.70;99.90;;;;;;4973193;28;20067;-65
2022/11/15 03:50:39;;;;;;;73.40;28.38;;;7.70;99.90;;;;;;4972815;28;20436;-65
2022/11/15 03:53:43;;;;;;;70.32;27.58;;;7.70;99.90;;;;;;4972805;28;20117;-65
2022/11/15 03:56:39;;;;;;;65.38;27.75;;;7.80;99.90;;;;;;4972390;28;20504;-65
2022/11/15 04:00:02;;;;;;;73.22;28.25;;;7.80;99.90;;;;;;4955773;28;20054;-65
2022/11/15 04:02:42;;;;;;;75.03;28.10;;;7.80;99.90;;;;;;4972326;28;20051;-65
2022/11/15 04:05:44;;;;;;;69.28;28.13;;;7.90;99.90;;;;;;4970142;28;20575;-66
2022/11/15 04:09:01;;;;;;;73.82;29.02;;;7.90;99.90;;;;;;4968410;28;20086;-65
2022/11/15 04:11:44;;;;;;;70.60;27.30;;;7.90;99.90;;;;;;4971480;28;20047;-66
2022/11/15 04:14:33;;;;;;;75.38;28.70;;;8.00;99.90;;;;;;4972115;28;20039;-65
2022/11/15 04:17:35;;;;;;;72.25;28.95;;;8.00;99.90;;;;;;4971968;28;20038;-65
2022/11/15 04:24:38;;;;;;;61.60;26.67;;;8.10;99.90;;;;;;4969863;28;20055;-65
2022/11/15 04:27:58;;;;;;;;;;;8.10;99.90;;;;;;4968246;28;20101;-65
2022/11/15 04:31:27;;;;;;;71.07;28.50;;;8.20;99.90;;;;;;4972320;28;19918;-66
2022/11/15 04:34:48;;;;;;;69.90;28.33;;;8.20;99.90;;;;;;4970892;28;20054;-65
2022/11/15 04:37:34;;;;;;;69.05;29.13;;;8.30;99.90;;;;;;4952550;28;20039;-66
2022/11/15 04:40:42;;;;;;;74.68;27.42;;;8.30;99.90;;;;;;4955114;28;20125;-65
2022/11/15 04:43:56;;;;;;;72.43;30.67;;;8.40;99.90;;;;;;4972305;28;20170;-65
2022/11/15 04:47:10;;;;;;;71.65;28.88;;;8.40;99.90;;;;;;4955351;28;20054;-65
2022/11/15 04:50:14;;;;;;;71.05;33.15;;;8.50;99.90;;;;;;4953469;28;20090;-65
2022/11/15 04:53:06;;;;;;;78.25;33.83;;;8.60;99.90;;;;;;4970242;28;20046;-65
2022/11/15 04:56:39;;;;;;;81.28;34.28;;;8.60;99.90;;;;;;4971912;28;20042;-65
2022/11/15 04:59:57;;;;;;;75.68;30.50;;;8.70;99.90;;;;;;4972618;28;20105;-66
2022/11/15 05:06:04;;;;;;;76.18;31.42;;;8.80;99.90;;;;;;4952324;28;20136;-66
2022/11/15 05:09:07;;;;;;;84.32;35.22;;;8.90;99.90;;;;;;4948758;29;20576;-65
2022/11/15 05:12:09;;;;;;;77.93;28.92;;;8.90;99.90;;;;;;4951263;29;20134;-65
2022/11/15 05:15:32;;;;;;;83.30;35.20;;;9.00;99.90;;;;;;4952733;28;20087;-66
2022/11/15 05:18:54;;;;;;;99.38;35.92;;;9.00;99.90;;;;;;4944555;28;20074;-66
2022/11/15 05:22:09;;;;;;;87.93;34.85;;;9.00;99.90;;;;;;4965634;28;20497;-66
2022/11/15 05:25:42;;;;;;;97.13;34.83;;;9.10;99.90;;;;;;4956419;28;20082;-66
2022/11/15 05:29:22;;;;;;;94.28;34.05;;;9.10;99.90;;;;;;4956837;28;20043;-66
2022/11/15 05:32:58;;;;;;;99.05;35.13;;;9.20;99.90;;;;;;4945202;29;20162;-65
2022/11/15 05:36:49;;;;;;;83.22;30.33;;;9.30;99.90;;;;;;4954519;28;20088;-66
2022/11/15 05:40:12;;;;;;;94.50;33.40;;;9.30;99.90;;;;;;4956228;28;20050;-66
2022/11/15 05:43:35;;;;;;;97.38;36.03;;;9.30;99.90;;;;;;4956041;28;20050;-65
2022/11/15 05:46:53;;;;;;;90.07;35.45;;;9.40;99.90;;;;;;4952073;28;20061;-66
2022/11/15 05:50:09;;;;;;;94.13;35.97;;;9.40;99.90;;;;;;4956341;28;20051;-66
2022/11/15 05:53:17;;;;;;;102.80;39.38;;;9.50;99.90;;;;;;4938564;29;20051;-65
2022/11/15 05:56:42;;;;;;;79.55;31.48;;;9.50;99.90;;;;;;4956064;28;20047;-66
2022/11/15 06:00:18;;;;;;;92.93;35.03;;;9.50;99.90;;;;;;4956137;28;20059;-66
2022/11/15 06:03:38;;;;;;;96.00;34.67;;;9.50;99.90;;;;;;4954722;28;20114;-66
2022/11/15 06:06:42;;;;;;;97.70;38.20;;;9.50;99.90;;;;;;4950368;29;20146;-66
2022/11/15 06:09:27;;;;;;;72.65;33.00;;;9.60;99.90;;;;;;4953666;28;20058;-66
2022/11/15 06:13:30;;;;;;;;;;;;;;;;;;;;;
2022/11/15 06:17:03;;;;;;;75.00;30.70;;;9.70;99.90;;;;;;4971867;28;20046;-66
2022/11/15 06:20:10;;;;;;;85.25;33.55;;;9.70;99.90;;;;;;4972830;28;20039;-67
2022/11/15 06:23:23;;;;;;;89.03;35.65;;;9.70;99.90;;;;;;4971382;28;20039;-66
2022/11/15 06:30:34;;;;;;;77.97;30.48;;;9.80;99.90;;;;;;4954481;28;20129;-66
2022/11/15 06:33:56;;;;;;;65.13;32.83;;;9.80;99.90;;;;;;4971698;28;20051;-66
2022/11/15 06:37:13;;;;;;;73.50;32.42;;;9.90;99.90;;;;;;4970424;28;20277;-66
2022/11/15 06:40:32;;;;;;;67.35;31.38;;;9.90;99.90;;;;;;4956678;28;20046;-66
2022/11/15 06:43:52;;;;;;;61.53;28.98;;;9.90;99.90;;;;;;4973574;28;20105;-66
2022/11/15 06:47:08;;;;;;;69.93;31.95;;;10.00;99.90;;;;;;4943742;28;20049;-67
2022/11/15 06:50:10;;;;;;;72.78;32.88;;;10.00;99.90;;;;;;4957206;28;20548;-66
2022/11/15 06:53:18;;;;;;;65.43;31.23;;;10.00;99.90;;;;;;4973018;28;20113;-65
2022/11/15 06:56:00;;;;;;;52.45;27.05;;;10.00;99.90;;;;;;4941692;28;20053;-66
2022/11/15 06:58:28;;;;;;;59.38;29.08;;;10.10;99.90;;;;;;4957631;28;20031;-65
2022/11/15 07:01:26;;;;;;;55.50;28.08;;;10.10;99.90;;;;;;4974001;28;20320;-65
2022/11/15 07:04:41;;;;;;;51.35;28.42;;;10.10;99.90;;;;;;4953582;28;20493;-65
2022/11/15 09:08:18;;;;;;;34.92;21.50;;;11.20;99.90;;;;;;5161325;23;20051;-66
2022/11/15 09:10:44;;;;;;;34.08;20.52;;;11.30;99.90;;;;;;4957794;29;20067;-66
2022/11/15 09:13:10;;;;;;;34.55;20.58;;;11.30;99.90;;;;;;4942091;29;20445;-65
2022/11/15 09:15:37;;;;;;;36.67;22.08;;;11.40;99.90;;;;;;4942499;29;20042;-66
2022/11/15 09:18:06;;;;;;;32.17;20.38;;;11.40;99.90;;;;;;4959511;28;20373;-66
2022/11/15 09:20:33;;;;;;;30.57;20.37;;;11.50;99.90;;;;;;4942237;29;20058;-66
2022/11/15 09:23:01;;;;;;;28.38;19.40;;;11.70;99.90;;;;;;4941877;29;20555;-66
2022/11/15 09:25:28;;;;;;;32.22;19.20;;;11.90;99.90;;;;;;4942116;28;20043;-65
2022/11/15 09:27:54;;;;;;;36.08;21.20;;;11.80;99.90;;;;;;4942274;29;20043;-66
2022/11/15 09:30:21;;;;;;;33.55;21.30;;;11.70;99.90;;;;;;4959118;29;20054;-66
2022/11/15 09:32:47;;;;;;;30.23;19.35;;;11.70;99.90;;;;;;4941919;29;20086;-66
2022/11/15 09:35:14;;;;;;;28.35;19.02;;;11.70;99.90;;;;;;4959282;29;20114;-66
2022/11/15 09:37:40;;;;;;;32.70;19.88;;;11.70;99.90;;;;;;4942058;29;20039;-66
2022/11/15 09:40:11;;;;;;;34.97;21.10;;;11.70;99.90;;;;;;4957198;28;20036;-66
2022/11/15 09:43:03;;;;;;;26.98;18.77;;;11.70;99.90;;;;;;4941828;29;20528;-66
2022/11/15 09:46:12;;;;;;;31.48;19.52;;;11.60;99.90;;;;;;4921553;29;20083;-66
2022/11/15 09:49:03;;;;;;;30.27;19.75;;;11.60;99.90;;;;;;4929449;29;20574;-66
2022/11/15 09:51:48;;;;;;;32.03;19.65;;;11.60;99.90;;;;;;4956756;29;20074;-66
2022/11/15 09:54:30;;;;;;;29.20;20.27;;;11.60;99.90;;;;;;4946460;28;20046;-66
2022/11/15 09:57:03;;;;;;;30.45;19.77;;;11.60;99.90;;;;;;4941981;29;20078;-66
2022/11/15 09:59:56;;;;;;;30.52;21.38;;;11.70;99.90;;;;;;4943109;28;20130;-66
2022/11/15 10:02:48;;;;;;;29.80;20.20;;;11.70;99.90;;;;;;4943156;29;20122;-65
2022/11/15 10:05:21;;;;;;;27.17;20.58;;;11.80;99.90;;;;;;4942684;29;20047;-66
2022/11/15 10:07:51;;;;;;;29.45;19.48;;;11.90;99.90;;;;;;4959953;29;20059;-66
2022/11/15 10:10:29;;;;;;;30.47;19.17;;;12.10;99.90;;;;;;4937231;29;20051;-67
2022/11/15 10:12:55;;;;;;;30.30;19.30;;;12.30;99.90;;;;;;4940060;29;20079;-66
2022/11/15 10:15:22;;;;;;;26.58;17.45;;;12.30;99.90;;;;;;4938086;29;20456;-66
2022/11/15 10:18:07;;;;;;;29.55;18.25;;;12.30;99.90;;;;;;4929079;29;20027;-65
2022/11/15 10:20:52;;;;;;;28.85;18.80;;;12.20;99.90;;;;;;4918060;29;20102;-65
2022/11/15 10:23:23;;;;;;;22.10;15.85;;;12.20;99.90;;;;;;4956153;29;20051;-66
2022/11/15 10:26:07;;;;;;;25.58;17.92;;;12.20;99.90;;;;;;4946183;29;20052;-66
2022/11/15 10:28:34;;;;;;;23.83;16.02;;;12.20;99.90;;;;;;4939157;29;20518;-65
2022/11/15 10:31:01;;;;;;;24.80;16.83;;;12.30;99.90;;;;;;4956355;29;20090;-66
2022/11/15 10:33:37;;;;;;;23.23;15.98;;;12.40;99.90;;;;;;4947664;29;20050;-67
2022/11/15 10:36:12;;;;;;;24.30;14.90;;;12.40;99.90;;;;;;4956596;29;20043;-67
2022/11/15 10:38:51;;;;;;;25.23;15.13;;;12.40;99.90;;;;;;4937160;29;20848;-65
2022/11/15 10:41:20;;;;;;;23.95;15.68;;;12.40;99.90;;;;;;4956522;29;20035;-66
2022/11/15 10:44:03;;;;;;;21.60;14.07;;;12.30;99.90;;;;;;4936504;29;20044;-66
2022/11/15 10:46:31;;;;;;;19.83;13.45;;;12.30;99.90;;;;;;4956189;29;20046;-66
2022/11/15 10:49:17;;;;;;;21.65;14.73;;;12.20;99.90;;;;;;4939096;29;20058;-66
2022/11/15 10:51:50;;;;;;;16.92;12.77;;;12.20;99.90;;;;;;4939203;29;20057;-66
2022/11/15 10:54:24;;;;;;;20.65;13.73;;;12.10;99.90;;;;;;4923149;29;20122;-65
2022/11/15 10:56:54;;;;;;;18.77;12.07;;;12.10;99.90;;;;;;4938990;29;20041;-66
2022/11/15 10:59:42;;;;;;;24.20;13.23;;;12.10;99.90;;;;;;4956130;29;20098;-66
2022/11/15 11:02:56;;;;;;;17.50;10.90;;;12.10;99.90;;;;;;4955833;29;20043;-66
2022/11/15 11:05:39;;;;;;;18.88;11.05;;;12.10;99.90;;;;;;4913346;29;20047;-65
2022/11/15 11:08:25;;;;;;;16.42;11.50;;;12.10;99.90;;;;;;4955471;29;20055;-66
2022/11/15 11:10:54;;;;;;;15.45;10.13;;;12.00;99.90;;;;;;4955510;29;20043;-67
2022/11/15 11:13:46;;;;;;;15.88;10.63;;;12.10;99.90;;;;;;4955535;29;20508;-66
2022/11/15 11:16:41;;;;;;;13.07;9.13;;;12.00;99.90;;;;;;4922972;29;20047;-66
2022/11/15 11:19:31;;;;;;;12.63;9.10;;;12.10;99.90;;;;;;4970754;28;20093;-66
2022/11/15 11:22:16;;;;;;;12.75;8.93;;;12.00;99.90;;;;;;4922559;29;20043;-66
2022/11/15 11:25:11;;;;;;;11.85;8.32;;;12.10;99.90;;;;;;4955571;29;20459;-66
2022/11/15 11:27:43;;;;;;;11.73;8.27;;;12.20;99.90;;;;;;4932586;29;20089;-66
2022/11/15 11:30:24;;;;;;;13.48;8.73;;;12.20;99.90;;;;;;4955559;29;20417;-67
2022/11/15 11:33:05;;;;;;;16.13;9.00;;;12.20;99.90;;;;;;4946368;29;20065;-66
2022/11/15 11:35:52;;;;;;;12.88;8.73;;;12.20;99.90;;;;;;4938460;29;20102;-66
2022/11/15 11:38:53;;;;;;;12.68;8.82;;;12.20;99.90;;;;;;4954468;29;20042;-66
2022/11/15 11:41:36;;;;;;;14.38;9.02;;;12.30;99.90;;;;;;4938293;29;20050;-66
2022/11/15 11:44:14;;;;;;;10.43;8.30;;;12.40;99.90;;;;;;4943677;29;20094;-67
2022/11/15 11:47:00;;;;;;;12.82;7.82;;;12.50;99.90;;;;;;4955118;29;20051;-67
2022/11/15 11:50:13;;;;;;;11.48;8.35;;;12.70;99.90;;;;;;4948605;29;20050;-66
2022/11/15 11:53:03;;;;;;;9.57;7.55;;;12.90;99.90;;;;;;4930404;29;20509;-66
2022/11/15 11:55:42;;;;;;;12.95;8.15;;;13.00;99.90;;;;;;4919510;29;20059;-67
2022/11/15 11:58:14;;;;;;;11.88;7.20;;;13.20;99.90;;;;;;4938007;29;20079;-66
2022/11/15 12:00:47;;;;;;;11.60;6.88;;;13.40;99.90;;;;;;4922223;29;20122;-66
2022/11/15 12:03:43;;;;;;;9.60;5.95;;;13.50;99.90;;;;;;4954860;29;20043;-66
2022/11/15 12:06:32;;;;;;;9.77;5.75;;;13.40;99.90;;;;;;4938060;29;20051;-66
2022/11/15 12:09:11;;;;;;;9.18;5.65;;;13.20;99.90;;;;;;4935320;29;20090;-66
2022/11/15 12:11:50;;;;;;;8.68;5.82;;;13.10;99.90;;;;;;4946191;29;20151;-66
2022/11/15 12:14:33;;;;;;;9.05;6.43;;;13.00;99.90;;;;;;4937333;29;20438;-66
2022/11/15 12:17:00;;;;;;;6.55;4.95;;;13.00;99.90;;;;;;4937578;29;20405;-66
2022/11/15 12:19:28;;;;;;;5.68;4.95;;;13.00;99.90;;;;;;4979187;28;20039;-65
2022/11/15 12:22:23;;;;;;;8.35;4.95;;;13.00;99.90;;;;;;4954692;28;20039;-65
2022/11/15 12:25:04;;;;;;;5.65;4.03;;;13.00;99.90;;;;;;4952223;29;20054;-67
2022/11/15 12:27:46;;;;;;;8.88;4.97;;;13.00;99.90;;;;;;4954448;29;20126;-66
2022/11/15 12:30:19;;;;;;;6.38;4.32;;;12.90;99.90;;;;;;4954458;29;20492;-66
2022/11/15 12:33:00;;;;;;;6.70;4.57;;;12.90;99.90;;;;;;4953918;28;20053;-65
2022/11/15 12:35:43;;;;;;;7.15;4.07;;;12.80;99.90;;;;;;4937635;29;20043;-66
2022/11/15 12:38:50;;;;;;;7.45;3.53;;;12.70;99.90;;;;;;4954084;29;20035;-67
2022/11/15 12:41:18;;;;;;;6.10;3.28;;;12.70;99.90;;;;;;4937399;29;20051;-66
2022/11/15 12:43:47;;;;;;;5.80;3.58;;;12.70;99.90;;;;;;4934592;29;20046;-66
2022/11/15 12:46:29;;;;;;;3.78;3.20;;;12.60;99.90;;;;;;4937366;29;20109;-66
2022/11/15 12:48:58;;;;;;;5.20;3.65;;;12.60;99.90;;;;;;4937276;29;20047;-65
2022/11/15 12:51:43;;;;;;;5.43;3.80;;;12.60;99.90;;;;;;4937215;29;20050;-66
2022/11/15 12:54:27;;;;;;;9.15;4.65;;;12.60;99.90;;;;;;4920450;29;20047;-66
2022/11/15 12:57:08;;;;;;;5.75;3.63;;;12.60;99.90;;;;;;4954239;29;20043;-65
2022/11/15 12:59:54;;;;;;;4.93;3.78;;;12.60;99.90;;;;;;4954221;29;20152;-65
2022/11/15 13:02:39;;;;;;;4.78;4.00;;;12.50;99.90;;;;;;4936858;29;20043;-66
2022/11/15 13:05:15;;;;;;;5.18;3.42;;;12.50;99.90;;;;;;4969298;28;20047;-67
2022/11/15 13:07:42;;;;;;;5.00;3.38;;;12.40;99.90;;;;;;4953858;29;20504;-66
2022/11/15 13:10:10;;;;;;;4.88;3.38;;;12.40;99.90;;;;;;4934830;29;20122;-66
2022/11/15 13:12:40;;;;;;;5.03;2.90;;;12.40;99.90;;;;;;4937291;29;20094;-67
2022/11/15 13:15:13;;;;;;;;;;;12.40;99.90;;;;;;4928412;29;20151;-67
2022/11/15 13:17:46;;;;;;;4.70;2.88;;;12.40;99.90;;;;;;4954301;28;19918;-66
2022/11/15 13:20:15;;;;;;;7.20;3.38;;;12.40;99.90;;;;;;4969062;28;20043;-66
2022/11/15 13:25:30;;;;;;;6.15;3.00;;;12.40;99.90;;;;;;4947268;29;20039;-67
2022/11/15 13:28:00;;;;;;;5.32;2.80;;;12.40;99.90;;;;;;4954016;29;20107;-67
2022/11/15 13:30:31;;;;;;;5.35;2.88;;;12.40;99.90;;;;;;4936823;29;20035;-66
2022/11/15 13:33:10;;;;;;;6.18;2.40;;;12.40;99.90;;;;;;4953765;29;20043;-67
2022/11/15 13:35:41;;;;;;;5.88;2.67;;;12.40;99.90;;;;;;4953951;29;20043;-67
2022/11/15 13:38:24;;;;;;;5.13;2.47;;;12.40;99.90;;;;;;4953770;29;20043;-67
2022/11/15 13:40:51;;;;;;;4.53;2.80;;;12.30;99.90;;;;;;4936305;29;20537;-66
2022/11/15 13:43:28;;;;;;;4.18;2.80;;;12.40;99.90;;;;;;4937142;29;20039;-66
2022/11/15 13:46:16;;;;;;;4.97;2.80;;;12.30;99.90;;;;;;4956829;29;20081;-66
2022/11/15 13:48:44;;;;;;;4.10;2.33;;;12.30;99.90;;;;;;4957336;29;20050;-65
2022/11/15 13:51:33;;;;;;;5.30;1.98;;;12.20;99.90;;;;;;4972186;28;20507;-66
2022/11/15 13:54:09;;;;;;;8.15;2.17;;;12.20;99.90;;;;;;4972179;28;20429;-68
2022/11/15 13:56:36;;;;;;;3.38;2.00;;;12.10;99.90;;;;;;4972353;28;20050;-66
2022/11/15 13:59:30;;;;;;;4.57;1.75;;;12.10;99.90;;;;;;4940180;29;20524;-66
2022/11/15 14:02:02;;;;;;;3.28;1.80;;;12.00;99.90;;;;;;4940169;29;20043;-67
2022/11/15 14:04:39;;;;;;;4.20;1.73;;;12.00;99.90;;;;;;4957169;29;20533;-66
2022/11/15 14:07:18;;;;;;;4.88;1.85;;;11.90;99.90;;;;;;4957198;29;20388;-67
2022/11/15 14:09:46;;;;;;;4.03;1.83;;;11.90;99.90;;;;;;4929040;29;20062;-66
2022/11/15 14:12:27;;;;;;;6.70;2.33;;;11.80;99.90;;;;;;4957395;28;20047;-65
2022/11/15 14:14:54;;;;;;;6.07;2.20;;;11.80;99.90;;;;;;4939627;29;20118;-66
2022/11/15 14:17:36;;;;;;;3.10;2.10;;;11.70;99.90;;;;;;4957095;29;20048;-65
2022/11/15 14:20:19;;;;;;;4.25;2.20;;;11.70;99.90;;;;;;4957123;29;20035;-66
2022/11/15 14:22:56;;;;;;;4.55;2.88;;;11.60;99.90;;;;;;4940237;29;20047;-65
2022/11/15 14:25:25;;;;;;;4.35;2.28;;;11.60;99.90;;;;;;4972071;28;20397;-66
2022/11/15 14:28:29;;;;;;;5.18;2.08;;;11.50;99.90;;;;;;4956988;29;20044;-66
2022/11/15 14:30:58;;;;;;;5.32;1.88;;;11.50;99.90;;;;;;4938030;29;20378;-66
2022/11/15 14:33:32;;;;;;;2.97;1.83;;;11.50;99.90;;;;;;4939632;29;20486;-66
2022/11/15 14:36:05;;;;;;;6.10;2.42;;;11.40;99.90;;;;;;4957153;29;20094;-66
2022/11/15 14:38:32;;;;;;;5.72;2.03;;;11.40;99.90;;;;;;4938536;29;20047;-65
2022/11/15 14:40:58;;;;;;;2.53;1.63;;;11.40;99.90;;;;;;4921521;29;20035;-66
2022/11/15 14:43:25;;;;;;;6.20;1.63;;;11.40;99.90;;;;;;4956842;29;20397;-66
2022/11/15 14:45:51;;;;;;;3.15;1.58;;;11.40;99.90;;;;;;4922636;29;20051;-68
2022/11/15 14:48:18;;;;;;;6.07;2.15;;;11.30;99.90;;;;;;4939813;29;20043;-66
2022/11/15 14:50:45;;;;;;;5.05;1.38;;;11.30;99.90;;;;;;4956531;29;20077;-66
2022/11/15 14:53:19;;;;;;;3.13;1.13;;;11.30;99.90;;;;;;4956544;29;20047;-66
2022/11/15 14:55:45;;;;;;;2.92;0.98;;;11.30;99.90;;;;;;4956019;28;20118;-66
2022/11/15 14:58:12;;;;;;;4.40;1.35;;;11.20;99.90;;;;;;4939653;29;20047;-66
2022/11/15 15:00:40;;;;;;;4.30;1.10;;;11.20;99.90;;;;;;4945166;29;20434;-65
2022/11/15 15:03:08;;;;;;;3.95;1.40;;;11.20;99.90;;;;;;4947867;29;20040;-65
2022/11/15 15:05:35;;;;;;;3.75;1.52;;;11.20;99.90;;;;;;4956441;29;20035;-65
2022/11/15 15:08:02;;;;;;;3.20;1.67;;;11.10;99.90;;;;;;4955880;29;20192;-65
2022/11/15 15:10:36;;;;;;;5.53;1.38;;;11.10;99.90;;;;;;4955500;29;20083;-65
2022/11/15 15:13:04;;;;;;;3.65;1.38;;;11.00;99.90;;;;;;4939283;29;20385;-66
2022/11/15 15:15:34;;;;;;;4.93;1.45;;;10.90;99.90;;;;;;4923510;29;20050;-66
2022/11/15 15:18:02;;;;;;;2.38;1.38;;;10.90;99.90;;;;;;4956271;29;20039;-66
2022/11/15 15:20:29;;;;;;;4.95;1.35;;;10.80;99.90;;;;;;4956244;29;20046;-65
2022/11/15 15:22:56;;;;;;;2.35;1.20;;;10.80;99.90;;;;;;4939274;29;20122;-66
2022/11/15 15:25:37;;;;;;;4.80;1.80;;;10.80;99.90;;;;;;4939227;29;20050;-65
2022/11/15 15:28:03;;;;;;;3.53;1.30;;;10.70;99.90;;;;;;4956190;29;20043;-65
2022/11/15 15:30:31;;;;;;;4.47;1.70;;;10.70;99.90;;;;;;4956202;29;20039;-65
2022/11/15 15:32:57;;;;;;;3.05;1.63;;;10.60;99.90;;;;;;4938779;29;20118;-65
2022/11/15 15:35:30;;;;;;;4.88;2.00;;;10.60;99.90;;;;;;4939169;29;20157;-65
2022/11/15 15:37:57;;;;;;;3.60;1.67;;;10.60;99.90;;;;;;4944158;29;20039;-66
2022/11/15 15:40:25;;;;;;;2.65;1.55;;;10.50;99.90;;;;;;4934973;29;20517;-65
2022/11/15 15:42:52;;;;;;;3.17;2.00;;;10.50;99.90;;;;;;4936540;29;20036;-65
2022/11/15 15:45:19;;;;;;;4.32;2.28;;;10.50;99.90;;;;;;4935705;29;20058;-65
2022/11/15 15:47:46;;;;;;;3.47;2.42;;;10.40;99.90;;;;;;4935783;29;20126;-65
2022/11/15 15:50:44;;;;;;;4.82;2.20;;;10.40;99.90;;;;;;4935404;29;20044;-66
2022/11/15 15:53:12;;;;;;;4.32;3.15;;;10.40;99.90;;;;;;4935162;29;20497;-66
2022/11/15 15:55:39;;;;;;;4.57;2.80;;;10.50;99.90;;;;;;4935458;29;20055;-65
2022/11/15 15:58:06;;;;;;;3.42;2.55;;;10.50;99.90;;;;;;4936666;29;20043;-66
2022/11/15 16:00:33;;;;;;;6.38;2.78;;;10.50;99.90;;;;;;4936275;29;20482;-66
2022/11/15 16:03:00;;;;;;;6.10;3.33;;;10.50;99.90;;;;;;4935255;29;20055;-66
2022/11/15 16:05:26;;;;;;;5.47;2.90;;;10.50;99.90;;;;;;4935348;29;20074;-66
2022/11/15 16:07:52;;;;;;;5.13;3.78;;;10.60;99.90;;;;;;4935236;29;20059;-66
2022/11/15 16:10:31;;;;;;;5.15;3.33;;;10.60;99.90;;;;;;4934601;29;20052;-66
2022/11/15 16:12:58;;;;;;;5.47;3.67;;;10.70;99.90;;;;;;4919226;29;20099;-66
2022/11/15 16:15:29;;;;;;;6.57;3.33;;;10.70;99.90;;;;;;4935098;29;20043;-65
2022/11/15 16:17:58;;;;;;;8.75;3.78;;;10.70;99.90;;;;;;4936052;29;20042;-65
2022/11/15 16:20:42;;;;;;;6.15;3.85;;;10.80;99.90;;;;;;4934635;29;20508;-65
2022/11/15 16:23:15;;;;;;;7.13;4.13;;;10.80;99.90;;;;;;4934872;29;20545;-65
2022/11/15 16:25:55;;;;;;;6.57;4.18;;;10.80;99.90;;;;;;4936073;29;20533;-65
2022/11/15 16:28:22;;;;;;;;;;;10.90;99.90;;;;;;4919584;29;20075;-65
2022/11/15 16:30:58;;;;;;;8.90;4.20;;;10.90;99.90;;;;;;4935677;29;20099;-66
2022/11/15 16:33:25;;;;;;;6.45;4.50;;;10.90;99.90;;;;;;4934728;29;20513;-66
2022/11/15 16:35:51;;;;;;;8.40;4.43;;;10.90;99.90;;;;;;4935984;29;20061;-66
2022/11/15 16:38:18;;;;;;;6.20;3.40;;;11.00;99.90;;;;;;4937905;29;20035;-66
2022/11/15 16:40:45;;;;;;;6.60;3.60;;;11.00;99.90;;;;;;4936008;29;20058;-65
2022/11/15 16:43:11;;;;;;;5.90;3.17;;;11.10;99.90;;;;;;4937796;29;20043;-66
2022/11/15 16:45:38;;;;;;;7.38;3.28;;;11.10;99.90;;;;;;4936996;29;20114;-65
2022/11/15 16:48:05;;;;;;;5.57;3.33;;;11.10;99.90;;;;;;4937824;29;20055;-65
2022/11/15 16:50:40;;;;;;;7.00;3.60;;;11.20;99.90;;;;;;4937623;29;20043;-66
2022/11/15 16:53:06;;;;;;;6.15;2.72;;;11.20;99.90;;;;;;4937494;29;20058;-66
2022/11/15 16:55:33;;;;;;;5.03;2.67;;;11.20;99.90;;;;;;4954690;29;20050;-66
2022/11/15 16:58:00;;;;;;;8.63;2.58;;;11.20;99.90;;;;;;4937583;29;20134;-66
2022/11/15 17:00:27;;;;;;;5.47;2.58;;;11.30;99.90;;;;;;4921894;29;20043;-65
2022/11/15 17:02:54;;;;;;;3.72;2.33;;;11.30;99.90;;;;;;4937586;29;20045;-66
2022/11/15 17:05:23;;;;;;;4.25;2.30;;;11.30;99.90;;;;;;4937814;29;20047;-66